createdAt,value
2022-07-29T00:01:55.687Z,99.90
2022-07-29T00:04:26.783Z,99.90
2022-07-29T00:06:57.826Z,99.90
2022-07-29T00:09:31.292Z,99.90
2022-07-29T00:12:02.859Z,99.90
2022-07-29T00:14:33.779Z,99.90
2022-07-29T00:17:04.771Z,99.90
2022-07-29T00:19:35.739Z,99.90
2022-07-29T00:22:06.663Z,99.90
2022-07-29T00:24:37.624Z,99.90
2022-07-29T00:27:08.601Z,99.90
2022-07-29T00:29:39.811Z,99.90
2022-07-29T00:32:10.960Z,99.90
2022-07-29T00:35:00.382Z,99.90
2022-07-29T00:37:31.370Z,99.90
2022-07-29T00:40:02.423Z,99.90
2022-07-29T00:42:44.730Z,99.90
2022-07-29T00:45:16.951Z,99.90
2022-07-29T00:47:47.900Z,99.90
2022-07-29T00:50:19.730Z,99.90
2022-07-29T00:52:52.798Z,99.90
2022-07-29T00:55:24.528Z,99.90
2022-07-29T00:57:56.289Z,99.90
2022-07-29T01:00:29.852Z,99.90
2022-07-29T01:03:00.864Z,99.90
2022-07-29T01:05:51.054Z,99.90
2022-07-29T01:08:24.807Z,99.90
2022-07-29T01:10:56.343Z,99.90
2022-07-29T01:13:28.574Z,99.90
2022-07-29T01:16:09.647Z,99.90
2022-07-29T01:18:48.346Z,99.90
2022-07-29T01:21:31.696Z,99.90
2022-07-29T01:24:23.641Z,99.90
2022-07-29T01:27:21.294Z,99.90
2022-07-29T01:30:01.079Z,99.90
2022-07-29T01:32:39.146Z,99.90
2022-07-29T01:35:25.154Z,99.90
2022-07-29T01:38:14.069Z,99.90
2022-07-29T01:40:57.618Z,99.90
2022-07-29T01:43:44.945Z,99.90
2022-07-29T01:46:25.897Z,99.90
2022-07-29T01:49:17.235Z,99.90
2022-07-29T01:51:53.813Z,99.90
2022-07-29T01:54:32.244Z,99.90
2022-07-29T01:57:06.341Z,99.90
2022-07-29T01:59:39.149Z,99.90
2022-07-29T02:02:12.808Z,99.90
2022-07-29T02:04:49.424Z,99.90
2022-07-29T02:07:24.542Z,99.90
2022-07-29T02:09:57.188Z,99.90
2022-07-29T02:12:30.657Z,99.90
2022-07-29T02:15:04.939Z,99.90
2022-07-29T02:18:04.961Z,99.90
2022-07-29T02:20:39.135Z,99.90
2022-07-29T02:23:13.256Z,99.90
2022-07-29T02:25:44.625Z,99.90
2022-07-29T02:28:18.544Z,99.90
2022-07-29T02:30:52.764Z,99.90
2022-07-29T02:33:26.926Z,99.90
2022-07-29T02:35:59.813Z,99.90
2022-07-29T02:38:51.572Z,99.90
2022-07-29T02:41:31.530Z,99.90
2022-07-29T02:44:13.350Z,99.90
2022-07-29T02:47:29.684Z,99.90
2022-07-29T02:50:15.479Z,99.90
2022-07-29T02:52:53.842Z,99.90
2022-07-29T02:55:38.796Z,99.90
2022-07-29T02:58:16.909Z,99.90
2022-07-29T03:00:50.208Z,99.90
2022-07-29T03:03:22.984Z,99.90
2022-07-29T03:05:57.250Z,99.90
2022-07-29T03:08:28.861Z,99.90
2022-07-29T03:11:02.187Z,99.90
2022-07-29T03:13:33.785Z,99.90
2022-07-29T03:16:06.316Z,99.90
2022-07-29T03:18:38.632Z,99.90
2022-07-29T03:21:09.900Z,99.90
2022-07-29T03:23:48.409Z,99.90
2022-07-29T03:26:20.479Z,99.90
2022-07-29T03:28:51.371Z,99.90
2022-07-29T03:31:22.332Z,99.90
2022-07-29T03:33:53.302Z,99.90
2022-07-29T03:36:24.293Z,99.90
2022-07-29T03:38:55.755Z,99.90
2022-07-29T03:41:27.119Z,99.90
2022-07-29T03:43:59.492Z,99.90
2022-07-29T03:46:32.343Z,99.90
2022-07-29T03:49:05.469Z,99.90
2022-07-29T03:51:36.620Z,99.90
2022-07-29T03:54:10.307Z,99.90
2022-07-29T03:56:48.544Z,99.90
2022-07-29T03:59:21.056Z,99.90
2022-07-29T04:01:52.613Z,99.90
2022-07-29T04:04:23.642Z,99.90
2022-07-29T04:06:54.926Z,99.90
2022-07-29T04:09:25.952Z,99.90
2022-07-29T04:12:03.420Z,99.90
2022-07-29T04:14:36.352Z,99.90
2022-07-29T04:17:07.322Z,99.90
2022-07-29T04:19:38.258Z,99.90
2022-07-29T04:22:09.219Z,99.90
2022-07-29T04:24:44.066Z,99.90
2022-07-29T04:27:15.266Z,99.90
2022-07-29T04:29:57.165Z,99.90
2022-07-29T04:32:28.770Z,99.90
2022-07-29T04:34:59.797Z,99.90
2022-07-29T04:37:30.833Z,99.90
2022-07-29T04:40:01.735Z,99.90
2022-07-29T04:42:32.732Z,99.90
2022-07-29T04:45:03.958Z,99.90
2022-07-29T04:47:38.688Z,99.90
2022-07-29T04:50:11.044Z,99.90
2022-07-29T04:52:44.190Z,99.90
2022-07-29T04:55:15.226Z,99.90
2022-07-29T04:57:46.246Z,99.90
2022-07-29T05:00:18.166Z,99.90
2022-07-29T05:02:49.165Z,99.90
2022-07-29T05:05:20.224Z,99.90
2022-07-29T05:07:51.133Z,99.90
2022-07-29T05:10:22.364Z,99.90
2022-07-29T05:12:53.582Z,99.90
2022-07-29T05:15:24.675Z,99.90
2022-07-29T05:17:55.800Z,99.90
2022-07-29T05:20:30.366Z,99.90
2022-07-29T05:23:03.972Z,99.90
2022-07-29T05:25:43.872Z,99.90
2022-07-29T05:28:16.173Z,99.90
2022-07-29T05:30:47.205Z,99.90
2022-07-29T05:33:35.770Z,99.90
2022-07-29T05:36:08.598Z,99.90
2022-07-29T05:38:39.828Z,99.90
2022-07-29T05:41:10.701Z,99.90
2022-07-29T05:43:41.700Z,99.90
2022-07-29T05:46:12.931Z,99.90
2022-07-29T05:48:43.992Z,99.90
2022-07-29T05:51:14.984Z,99.90
2022-07-29T05:53:46.004Z,99.90
2022-07-29T05:56:16.966Z,99.90
2022-07-29T05:58:48.198Z,99.90
2022-07-29T06:01:19.464Z,99.90
2022-07-29T06:03:53.860Z,99.90
2022-07-29T06:06:24.918Z,99.90
2022-07-29T06:08:56.317Z,99.90
2022-07-29T06:11:27.974Z,99.90
2022-07-29T06:13:59.001Z,99.90
2022-07-29T06:16:30.605Z,99.90
2022-07-29T06:19:01.676Z,99.90
2022-07-29T06:21:32.700Z,99.90
2022-07-29T06:24:03.956Z,99.90
2022-07-29T06:26:37.798Z,99.90
2022-07-29T06:29:14.407Z,99.90
2022-07-29T06:31:45.524Z,99.90
2022-07-29T06:34:17.458Z,99.90
2022-07-29T06:36:50.435Z,99.90
2022-07-29T06:39:22.165Z,99.90
2022-07-29T06:41:53.330Z,99.90
2022-07-29T06:44:24.319Z,99.90
2022-07-29T06:46:55.815Z,99.90
2022-07-29T06:49:27.368Z,99.90
2022-07-29T06:51:58.544Z,99.90
2022-07-29T06:54:29.430Z,99.90
2022-07-29T06:57:00.392Z,99.90
2022-07-29T06:59:35.618Z,99.90
2022-07-29T07:02:07.118Z,99.90
2022-07-29T07:04:38.414Z,99.90
2022-07-29T07:07:09.317Z,99.90
2022-07-29T07:09:41.026Z,99.90
2022-07-29T07:12:12.112Z,99.90
2022-07-29T07:14:44.463Z,99.90
2022-07-29T07:17:15.482Z,99.90
2022-07-29T07:19:46.430Z,99.90
2022-07-29T07:22:17.272Z,99.90
2022-07-29T07:24:48.207Z,99.90
2022-07-29T07:27:19.147Z,99.90
2022-07-29T07:29:50.207Z,99.90
2022-07-29T07:32:21.233Z,99.90
2022-07-29T07:34:52.192Z,99.90
2022-07-29T07:37:23.149Z,99.90
2022-07-29T07:39:54.357Z,99.90
2022-07-29T07:42:25.850Z,99.90
2022-07-29T07:45:12.544Z,99.90
2022-07-29T07:47:44.577Z,99.90
2022-07-29T07:50:19.027Z,99.90
2022-07-29T07:52:58.502Z,99.90
2022-07-29T07:55:34.950Z,99.90
2022-07-29T07:58:20.436Z,99.90
2022-07-29T08:00:51.425Z,99.90
2022-07-29T08:03:22.348Z,99.90
2022-07-29T08:05:55.240Z,99.90
2022-07-29T08:08:26.318Z,99.90
2022-07-29T08:11:00.600Z,99.90
2022-07-29T08:13:34.523Z,99.90
2022-07-29T08:16:13.092Z,99.90
2022-07-29T08:18:46.155Z,99.90
2022-07-29T08:21:17.297Z,99.90
2022-07-29T08:23:58.015Z,99.90
2022-07-29T08:26:30.793Z,99.90
2022-07-29T08:29:01.700Z,99.90
2022-07-29T08:31:32.974Z,99.90
2022-07-29T08:34:05.323Z,99.90
2022-07-29T08:36:36.348Z,99.70
2022-07-29T08:39:07.250Z,99.10
2022-07-29T08:41:38.463Z,98.60
2022-07-29T08:44:10.292Z,98.50
2022-07-29T08:46:41.213Z,98.60
2022-07-29T08:49:12.390Z,98.60
2022-07-29T08:51:49.244Z,98.20
2022-07-29T08:54:24.457Z,98.10
2022-07-29T08:56:56.946Z,98.20
2022-07-29T08:59:31.448Z,97.80
2022-07-29T09:02:02.757Z,97.70
2022-07-29T09:04:36.633Z,97.30
2022-07-29T09:07:07.999Z,97.10
2022-07-29T09:09:40.789Z,97.10
2022-07-29T09:12:28.930Z,96.10
2022-07-29T09:15:03.714Z,95.70
2022-07-29T09:17:42.990Z,95.60
2022-07-29T09:20:24.124Z,95.00
2022-07-29T09:22:55.103Z,94.60
2022-07-29T09:25:41.160Z,94.50
2022-07-29T09:28:17.621Z,94.60
2022-07-29T09:30:59.378Z,93.30
2022-07-29T09:33:41.456Z,93.40
2022-07-29T09:36:12.887Z,93.40
2022-07-29T09:38:43.769Z,93.20
2022-07-29T09:41:15.152Z,93.00
2022-07-29T09:43:59.059Z,92.90
2022-07-29T09:46:30.134Z,92.90
2022-07-29T09:49:13.818Z,92.30
2022-07-29T09:51:44.855Z,92.00
2022-07-29T09:54:27.246Z,92.00
2022-07-29T09:56:58.295Z,91.50
2022-07-29T09:59:29.300Z,91.00
2022-07-29T10:02:00.901Z,90.70
2022-07-29T10:04:42.559Z,90.70
2022-07-29T10:07:13.506Z,91.00
2022-07-29T10:09:58.263Z,90.80
2022-07-29T10:12:29.275Z,91.10
2022-07-29T10:15:03.004Z,91.40
2022-07-29T10:17:33.945Z,90.90
2022-07-29T10:20:06.759Z,91.20
2022-07-29T10:22:52.937Z,91.40
2022-07-29T10:25:25.694Z,91.10
2022-07-29T10:27:56.770Z,91.00
2022-07-29T10:30:28.890Z,91.00
2022-07-29T10:33:33.322Z,91.20
2022-07-29T10:36:22.388Z,91.00
2022-07-29T10:39:26.070Z,91.00
2022-07-29T10:42:20.048Z,91.50
2022-07-29T10:44:52.592Z,91.70
2022-07-29T10:47:28.778Z,91.70
2022-07-29T10:50:02.249Z,91.80
2022-07-29T10:52:53.619Z,91.80
2022-07-29T10:55:39.347Z,92.00
2022-07-29T10:58:19.679Z,92.40
2022-07-29T11:00:56.321Z,93.20
2022-07-29T11:03:50.689Z,93.70
2022-07-29T11:06:26.980Z,93.70
2022-07-29T11:09:34.970Z,93.90
2022-07-29T11:12:39.800Z,94.10
2022-07-29T11:15:25.055Z,94.20
2022-07-29T11:17:59.641Z,96.30
2022-07-29T11:20:38.724Z,99.80
2022-07-29T11:23:33.657Z,99.40
2022-07-29T11:26:26.154Z,99.90
2022-07-29T11:29:15.427Z,99.90
2022-07-29T11:31:55.885Z,99.90
2022-07-29T11:34:33.442Z,99.90
2022-07-29T11:37:14.849Z,99.90
2022-07-29T11:39:55.701Z,99.90
2022-07-29T11:42:32.490Z,99.90
2022-07-29T11:45:44.461Z,99.90
2022-07-29T11:48:29.081Z,99.90
2022-07-29T11:51:13.209Z,99.90
2022-07-29T11:53:52.463Z,99.90
2022-07-29T11:56:27.507Z,99.90
2022-07-29T11:59:10.265Z,99.90
2022-07-29T12:02:25.529Z,99.90
2022-07-29T12:04:52.833Z,99.90
2022-07-29T12:07:35.296Z,99.90
2022-07-29T12:10:08.345Z,99.90
2022-07-29T12:12:42.639Z,99.90
2022-07-29T12:15:16.969Z,99.90
2022-07-29T12:17:51.293Z,99.90
2022-07-29T12:20:30.498Z,99.90
2022-07-29T12:23:11.099Z,99.90
2022-07-29T12:25:49.658Z,99.90
2022-07-29T12:28:27.421Z,99.90
2022-07-29T12:30:59.532Z,99.90
2022-07-29T12:33:30.578Z,99.90
2022-07-29T12:36:10.416Z,99.90
2022-07-29T12:38:44.058Z,99.90
2022-07-29T12:41:15.133Z,99.90
2022-07-29T12:43:55.821Z,99.90
2022-07-29T12:46:27.138Z,99.90
2022-07-29T12:48:59.598Z,99.90
2022-07-29T12:51:37.584Z,99.90
2022-07-29T12:54:16.213Z,99.90
2022-07-29T12:56:47.263Z,99.90
2022-07-29T12:59:21.977Z,99.90
2022-07-29T13:01:53.617Z,99.90
2022-07-29T13:04:33.419Z,99.90
2022-07-29T13:07:08.459Z,99.90
2022-07-29T13:09:44.601Z,99.90
2022-07-29T13:12:15.979Z,99.90
2022-07-29T13:14:49.758Z,99.90
2022-07-29T13:17:32.732Z,99.90
2022-07-29T13:20:13.529Z,99.90
2022-07-29T13:22:49.231Z,99.90
2022-07-29T13:25:32.773Z,99.90
2022-07-29T13:28:03.800Z,99.90
2022-07-29T13:30:34.737Z,99.90
2022-07-29T13:33:05.728Z,99.90
2022-07-29T13:35:39.966Z,99.90
2022-07-29T13:38:11.191Z,99.90
2022-07-29T13:40:42.843Z,99.90
2022-07-29T13:43:13.830Z,99.90
2022-07-29T13:45:44.738Z,99.90
2022-07-29T13:48:15.835Z,99.90
2022-07-29T13:50:47.615Z,99.90
2022-07-29T13:53:18.571Z,99.90
2022-07-29T13:55:49.490Z,99.90
2022-07-29T13:58:20.372Z,99.90
2022-07-29T14:00:51.556Z,99.90
2022-07-29T14:03:22.541Z,99.90
2022-07-29T14:05:53.659Z,99.90
2022-07-29T14:08:24.540Z,99.90
2022-07-29T14:10:55.500Z,99.90
2022-07-29T14:13:29.540Z,99.90
2022-07-29T14:16:02.284Z,99.90
2022-07-29T14:18:33.193Z,99.90
2022-07-29T14:21:04.370Z,99.90
2022-07-29T14:23:35.305Z,99.90
2022-07-29T14:26:08.684Z,99.90
2022-07-29T14:28:42.128Z,99.90
2022-07-29T14:31:13.085Z,99.90
2022-07-29T14:33:44.315Z,99.90
2022-07-29T14:36:20.081Z,99.90
2022-07-29T14:38:54.819Z,99.90
2022-07-29T14:41:26.421Z,99.90
2022-07-29T14:43:57.576Z,99.90
2022-07-29T14:46:29.398Z,99.90
2022-07-29T14:49:00.425Z,99.90
2022-07-29T14:51:32.530Z,99.90
2022-07-29T14:54:03.647Z,99.90
2022-07-29T14:56:36.974Z,99.90
2022-07-29T14:59:08.521Z,99.90
2022-07-29T15:01:39.625Z,99.90
2022-07-29T15:04:10.627Z,99.90
2022-07-29T15:06:42.023Z,99.90
2022-07-29T15:09:12.916Z,99.90
2022-07-29T15:11:43.879Z,99.90
2022-07-29T15:14:14.848Z,99.90
2022-07-29T15:16:47.020Z,99.90
2022-07-29T15:19:19.218Z,99.90
2022-07-29T15:21:50.369Z,99.90
2022-07-29T15:24:21.729Z,99.90
2022-07-29T15:26:52.775Z,99.90
2022-07-29T15:29:24.552Z,99.90
2022-07-29T15:31:55.736Z,99.90
2022-07-29T15:34:30.238Z,99.90
2022-07-29T15:37:01.604Z,99.90
2022-07-29T15:39:33.102Z,99.90
2022-07-29T15:42:09.812Z,99.90
2022-07-29T15:44:40.701Z,99.90
2022-07-29T15:47:11.675Z,99.90
2022-07-29T15:49:47.860Z,99.90
2022-07-29T15:52:25.866Z,99.90
2022-07-29T15:54:58.054Z,99.90
2022-07-29T15:57:28.991Z,99.90
2022-07-29T16:00:00.082Z,99.90
2022-07-29T16:02:31.743Z,99.90
2022-07-29T16:05:02.705Z,99.90
2022-07-29T16:07:33.703Z,99.90
2022-07-29T16:10:05.615Z,99.90
2022-07-29T16:12:36.561Z,99.90
2022-07-29T16:15:10.432Z,99.90
2022-07-29T16:17:41.694Z,99.90
2022-07-29T16:20:13.892Z,99.90
2022-07-29T16:22:45.111Z,99.90
2022-07-29T16:25:16.086Z,99.90
2022-07-29T16:27:47.040Z,99.90
2022-07-29T16:30:17.933Z,99.90
2022-07-29T16:32:49.144Z,99.90
2022-07-29T16:35:20.107Z,99.90
2022-07-29T16:37:51.227Z,99.90
2022-07-29T16:40:22.379Z,99.90
2022-07-29T16:42:53.342Z,99.90
2022-07-29T16:45:24.437Z,99.90
2022-07-29T16:48:00.229Z,99.90
2022-07-29T16:50:33.030Z,99.90
2022-07-29T16:53:03.981Z,99.90
2022-07-29T16:55:35.094Z,99.90
2022-07-29T16:58:06.042Z,99.90
2022-07-29T17:00:37.154Z,99.90
2022-07-29T17:03:08.255Z,99.90
2022-07-29T17:05:52.287Z,99.90
2022-07-29T17:08:27.495Z,99.90
2022-07-29T17:10:58.411Z,99.90
2022-07-29T17:13:29.347Z,99.90
2022-07-29T17:16:00.787Z,99.90
2022-07-29T17:18:31.985Z,99.90
2022-07-29T17:21:02.993Z,99.90
2022-07-29T17:23:33.982Z,99.90
2022-07-29T17:26:04.887Z,99.90
2022-07-29T17:28:36.319Z,99.90
2022-07-29T17:31:07.457Z,99.90
2022-07-29T17:33:38.448Z,99.90
2022-07-29T17:36:25.034Z,99.90
2022-07-29T17:39:01.867Z,99.90
2022-07-29T17:41:33.088Z,99.90
2022-07-29T17:44:13.592Z,99.90
2022-07-29T17:46:44.798Z,99.90
2022-07-29T17:49:15.850Z,99.90
2022-07-29T17:51:47.090Z,99.90
2022-07-29T17:54:18.102Z,99.90
2022-07-29T17:56:49.158Z,99.90
2022-07-29T17:59:20.721Z,99.90
2022-07-29T18:01:51.741Z,99.90
2022-07-29T18:04:24.548Z,99.90
2022-07-29T18:06:55.859Z,99.90
2022-07-29T18:09:27.115Z,99.90
2022-07-29T18:11:58.169Z,99.90
2022-07-29T18:14:29.254Z,99.90
2022-07-29T18:17:00.688Z,99.90
2022-07-29T18:19:31.926Z,99.90
2022-07-29T18:22:05.327Z,99.90
2022-07-29T18:24:36.508Z,99.90
2022-07-29T18:27:07.859Z,99.90
2022-07-29T18:29:38.851Z,99.90
2022-07-29T18:32:10.163Z,99.90
2022-07-29T18:34:41.110Z,99.90
2022-07-29T18:37:12.209Z,99.90
2022-07-29T18:39:43.164Z,99.90
2022-07-29T18:42:14.083Z,99.90
2022-07-29T18:44:49.000Z,99.90
2022-07-29T18:47:20.281Z,99.90
2022-07-29T18:49:51.442Z,99.90
2022-07-29T18:52:22.381Z,99.90
2022-07-29T18:54:53.370Z,99.90
2022-07-29T18:57:54.745Z,99.90
2022-07-29T19:00:16.366Z,99.90
2022-07-29T19:02:47.816Z,99.90
2022-07-29T19:05:19.300Z,99.90
2022-07-29T19:07:50.724Z,99.90
2022-07-29T19:10:22.225Z,99.90
2022-07-29T19:12:53.219Z,99.90
2022-07-29T19:15:24.467Z,99.90
2022-07-29T19:17:59.141Z,99.90
2022-07-29T19:20:34.733Z,99.90
2022-07-29T19:23:05.893Z,99.90
2022-07-29T19:25:37.478Z,99.90
2022-07-29T19:28:24.329Z,99.90
2022-07-29T19:30:55.231Z,99.90
2022-07-29T19:33:26.335Z,99.90
2022-07-29T19:35:57.355Z,99.90
2022-07-29T19:38:28.451Z,99.90
2022-07-29T19:40:59.391Z,99.90
2022-07-29T19:43:49.475Z,99.90
2022-07-29T19:46:23.942Z,99.90
2022-07-29T19:48:55.857Z,99.90
2022-07-29T19:51:27.017Z,99.90
2022-07-29T19:53:57.952Z,99.90
2022-07-29T19:56:30.189Z,99.90
2022-07-29T19:59:01.784Z,99.90
2022-07-29T20:01:34.987Z,99.90
2022-07-29T20:04:05.981Z,99.90
2022-07-29T20:06:36.862Z,99.90
2022-07-29T20:09:07.782Z,99.90
2022-07-29T20:11:47.947Z,99.90
2022-07-29T20:14:18.835Z,99.90
2022-07-29T20:16:51.274Z,99.90
2022-07-29T20:19:22.363Z,99.90
2022-07-29T20:21:54.693Z,99.90
2022-07-29T20:24:25.844Z,99.90
2022-07-29T20:26:56.849Z,99.90
2022-07-29T20:29:28.012Z,99.90
2022-07-29T20:31:58.882Z,99.90
2022-07-29T20:34:30.000Z,99.90
2022-07-29T20:37:02.651Z,99.90
2022-07-29T20:39:33.804Z,99.90
2022-07-29T20:42:05.876Z,99.90
2022-07-29T20:44:39.838Z,99.90
2022-07-29T20:47:10.854Z,99.90
2022-07-29T20:49:41.956Z,99.90
2022-07-29T20:52:12.812Z,99.90
2022-07-29T20:54:43.768Z,99.90
2022-07-29T20:57:14.831Z,99.90
2022-07-29T20:59:45.991Z,99.90
2022-07-29T21:02:16.911Z,99.90
2022-07-29T21:04:47.839Z,99.90
2022-07-29T21:07:18.751Z,99.90
2022-07-29T21:09:50.999Z,99.90
2022-07-29T21:12:22.721Z,99.90
2022-07-29T21:14:53.750Z,99.90
2022-07-29T21:17:25.223Z,99.90
2022-07-29T21:19:56.261Z,99.90
2022-07-29T21:22:27.124Z,99.90
2022-07-29T21:24:58.565Z,99.90
2022-07-29T21:27:47.883Z,99.90
2022-07-29T21:30:18.912Z,99.90
2022-07-29T21:32:49.867Z,99.90
2022-07-29T21:36:01.996Z,99.90
2022-07-29T21:38:18.478Z,99.90
2022-07-29T21:40:51.533Z,99.90
2022-07-29T21:43:23.347Z,99.90
2022-07-29T21:45:55.633Z,99.90
2022-07-29T21:48:28.901Z,99.90
2022-07-29T21:51:00.240Z,99.90
2022-07-29T21:53:31.150Z,99.90
2022-07-29T21:56:02.117Z,99.90
2022-07-29T21:58:33.000Z,99.90
2022-07-29T22:01:04.176Z,99.90
2022-07-29T22:03:35.139Z,99.90
2022-07-29T22:06:06.246Z,99.90
2022-07-29T22:08:37.260Z,99.90
2022-07-29T22:11:08.323Z,99.90
2022-07-29T22:13:39.254Z,99.90
2022-07-29T22:16:14.723Z,99.90
2022-07-29T22:18:47.005Z,99.90
2022-07-29T22:21:18.033Z,99.90
2022-07-29T22:23:48.961Z,99.90
2022-07-29T22:26:20.006Z,99.90
2022-07-29T22:28:51.081Z,99.90
2022-07-29T22:31:22.280Z,99.90
2022-07-29T22:33:53.534Z,99.90
2022-07-29T22:36:25.336Z,99.90
2022-07-29T22:38:56.278Z,99.90
2022-07-29T22:41:27.308Z,99.90
2022-07-29T22:43:58.358Z,99.90
2022-07-29T22:46:29.476Z,99.90
2022-07-29T22:49:00.810Z,99.90
2022-07-29T22:51:32.112Z,99.90
2022-07-29T22:54:04.360Z,99.90
2022-07-29T22:56:35.347Z,99.90
2022-07-29T22:59:06.700Z,99.90
2022-07-29T23:01:38.302Z,99.90
2022-07-29T23:04:09.342Z,99.90
2022-07-29T23:06:40.282Z,99.90
2022-07-29T23:09:11.159Z,99.90
2022-07-29T23:11:42.099Z,99.90
2022-07-29T23:14:13.549Z,99.90
2022-07-29T23:16:44.900Z,99.90
2022-07-29T23:19:15.924Z,99.90
2022-07-29T23:21:46.835Z,99.90
2022-07-29T23:24:17.793Z,99.90
2022-07-29T23:26:48.830Z,99.90
2022-07-29T23:29:22.457Z,99.90
2022-07-29T23:31:53.360Z,99.90
2022-07-29T23:34:24.611Z,99.90
2022-07-29T23:36:55.509Z,99.90
2022-07-29T23:39:27.674Z,99.90
2022-07-29T23:41:58.559Z,99.90
2022-07-29T23:44:29.588Z,99.90
2022-07-29T23:47:00.646Z,99.90
2022-07-29T23:49:31.818Z,99.90
2022-07-29T23:52:03.008Z,99.90
2022-07-29T23:54:34.023Z,99.90
2022-07-29T23:57:04.972Z,99.90
2022-07-29T23:59:35.938Z,99.90
